sensor_id;sensor_type;location;lat;lon;timestamp;pressure;altitude;pressure_sealevel;temperature;humidity
78665;BME280;67981;51.022;-2.870;2023-03-14T00:01:00;98783.97;;;6.87;76.91
78665;BME280;67981;51.022;-2.870;2023-03-14T00:03:32;98779.72;;;6.86;76.60
78665;BME280;67981;51.022;-2.870;2023-03-14T00:06:02;98796.69;;;6.76;75.98
78665;BME280;67981;51.022;-2.870;2023-03-14T00:08:27;98800.13;;;6.80;76.18
78665;BME280;67981;51.022;-2.870;2023-03-14T00:10:52;98814.66;;;6.76;77.04
78665;BME280;67981;51.022;-2.870;2023-03-14T00:13:18;98810.22;;;6.62;77.32
78665;BME280;67981;51.022;-2.870;2023-03-14T00:15:43;98828.97;;;6.62;77.07
78665;BME280;67981;51.022;-2.870;2023-03-14T00:18:08;98835.75;;;6.57;77.67
78665;BME280;67981;51.022;-2.870;2023-03-14T00:20:34;98842.59;;;6.57;76.14
78665;BME280;67981;51.022;-2.870;2023-03-14T00:22:59;98851.91;;;6.49;76.55
78665;BME280;67981;51.022;-2.870;2023-03-14T00:25:25;98860.44;;;6.49;76.48
78665;BME280;67981;51.022;-2.870;2023-03-14T00:27:51;98845.63;;;6.27;75.23
78665;BME280;67981;51.022;-2.870;2023-03-14T00:30:17;98868.75;;;6.32;75.14
78665;BME280;67981;51.022;-2.870;2023-03-14T00:32:42;98897.91;;;6.41;74.86
78665;BME280;67981;51.022;-2.870;2023-03-14T00:35:08;98889.19;;;6.29;75.15
78665;BME280;67981;51.022;-2.870;2023-03-14T00:37:33;98892.69;;;6.35;74.49
78665;BME280;67981;51.022;-2.870;2023-03-14T00:39:59;98914.84;;;6.32;74.88
78665;BME280;67981;51.022;-2.870;2023-03-14T00:42:24;98926.69;;;6.25;75.45
78665;BME280;67981;51.022;-2.870;2023-03-14T00:44:50;98925.00;;;6.26;75.77
78665;BME280;67981;51.022;-2.870;2023-03-14T00:47:15;98939.59;;;6.30;76.28
78665;BME280;67981;51.022;-2.870;2023-03-14T00:49:40;98925.75;;;6.20;76.23
78665;BME280;67981;51.022;-2.870;2023-03-14T00:52:08;98957.47;;;6.27;77.04
78665;BME280;67981;51.022;-2.870;2023-03-14T00:54:34;98959.25;;;6.31;76.45
78665;BME280;67981;51.022;-2.870;2023-03-14T00:56:59;98960.13;;;6.33;76.30
78665;BME280;67981;51.022;-2.870;2023-03-14T00:59:24;98968.59;;;6.29;75.96
78665;BME280;67981;51.022;-2.870;2023-03-14T01:01:50;98985.72;;;6.30;76.16
78665;BME280;67981;51.022;-2.870;2023-03-14T01:04:15;98981.38;;;6.27;75.64
78665;BME280;67981;51.022;-2.870;2023-03-14T01:06:40;98995.06;;;6.29;74.82
78665;BME280;67981;51.022;-2.870;2023-03-14T01:09:06;98995.75;;;6.19;74.91
78665;BME280;67981;51.022;-2.870;2023-03-14T01:11:33;99003.44;;;6.19;74.30
78665;BME280;67981;51.022;-2.870;2023-03-14T01:13:59;99014.47;;;6.14;74.13
78665;BME280;67981;51.022;-2.870;2023-03-14T01:16:30;99017.78;;;6.08;73.64
78665;BME280;67981;51.022;-2.870;2023-03-14T01:18:56;99021.03;;;6.00;73.59
78665;BME280;67981;51.022;-2.870;2023-03-14T01:21:24;99029.69;;;6.06;74.29
78665;BME280;67981;51.022;-2.870;2023-03-14T01:23:51;99043.19;;;5.98;75.17
78665;BME280;67981;51.022;-2.870;2023-03-14T01:26:19;99046.63;;;6.00;74.79
78665;BME280;67981;51.022;-2.870;2023-03-14T01:28:46;99062.88;;;6.00;74.98
78665;BME280;67981;51.022;-2.870;2023-03-14T01:31:12;99069.56;;;5.94;75.41
78665;BME280;67981;51.022;-2.870;2023-03-14T01:33:38;99078.91;;;5.92;75.66
78665;BME280;67981;51.022;-2.870;2023-03-14T01:36:05;99094.31;;;5.93;75.52
78665;BME280;67981;51.022;-2.870;2023-03-14T01:38:32;99092.53;;;5.89;74.23
78665;BME280;67981;51.022;-2.870;2023-03-14T01:40:58;99105.53;;;6.00;75.03
78665;BME280;67981;51.022;-2.870;2023-03-14T01:43:24;99109.84;;;6.01;74.73
78665;BME280;67981;51.022;-2.870;2023-03-14T01:48:51;99128.56;;;6.00;75.52
78665;BME280;67981;51.022;-2.870;2023-03-14T01:51:27;99126.81;;;5.96;76.39
78665;BME280;67981;51.022;-2.870;2023-03-14T01:53:59;99118.25;;;5.95;76.05
78665;BME280;67981;51.022;-2.870;2023-03-14T01:56:27;99132.22;;;6.12;73.07
78665;BME280;67981;51.022;-2.870;2023-03-14T01:58:53;99153.50;;;6.08;73.77
78665;BME280;67981;51.022;-2.870;2023-03-14T02:01:21;99153.28;;;5.98;74.73
78665;BME280;67981;51.022;-2.870;2023-03-14T02:03:53;99152.19;;;5.85;75.13
78665;BME280;67981;51.022;-2.870;2023-03-14T02:06:23;99159.94;;;5.90;74.75
78665;BME280;67981;51.022;-2.870;2023-03-14T02:08:50;99170.09;;;5.85;75.62
78665;BME280;67981;51.022;-2.870;2023-03-14T02:11:17;99166.47;;;5.77;75.73
78665;BME280;67981;51.022;-2.870;2023-03-14T02:13:43;99179.38;;;5.81;75.21
78665;BME280;67981;51.022;-2.870;2023-03-14T02:16:09;99182.88;;;5.84;75.41
78665;BME280;67981;51.022;-2.870;2023-03-14T02:18:34;99177.59;;;5.77;75.79
78665;BME280;67981;51.022;-2.870;2023-03-14T02:26:40;99181.03;;;5.78;74.79
78665;BME280;67981;51.022;-2.870;2023-03-14T02:29:08;99188.63;;;5.75;75.58
78665;BME280;67981;51.022;-2.870;2023-03-14T02:31:34;99186.78;;;5.68;75.72
78665;BME280;67981;51.022;-2.870;2023-03-14T02:33:59;99195.44;;;5.74;75.99
78665;BME280;67981;51.022;-2.870;2023-03-14T02:36:27;99207.34;;;5.72;75.95
78665;BME280;67981;51.022;-2.870;2023-03-14T02:39:02;99222.72;;;5.74;76.21
78665;BME280;67981;51.022;-2.870;2023-03-14T02:41:29;99234.53;;;5.67;75.96
78665;BME280;67981;51.022;-2.870;2023-03-14T02:43:54;99214.63;;;5.54;76.02
78665;BME280;67981;51.022;-2.870;2023-03-14T02:46:21;99240.41;;;5.62;75.80
78665;BME280;67981;51.022;-2.870;2023-03-14T02:51:19;99262.63;;;5.64;75.31
78665;BME280;67981;51.022;-2.870;2023-03-14T02:53:44;99263.59;;;5.69;74.90
78665;BME280;67981;51.022;-2.870;2023-03-14T02:56:10;99249.81;;;5.64;74.46
78665;BME280;67981;51.022;-2.870;2023-03-14T02:58:36;99271.34;;;5.74;74.47
78665;BME280;67981;51.022;-2.870;2023-03-14T03:01:01;99273.19;;;5.79;73.95
78665;BME280;67981;51.022;-2.870;2023-03-14T03:03:27;99277.41;;;5.77;73.62
78665;BME280;67981;51.022;-2.870;2023-03-14T03:05:54;99277.44;;;5.79;73.15
78665;BME280;67981;51.022;-2.870;2023-03-14T03:08:21;99291.31;;;5.87;72.56
78665;BME280;67981;51.022;-2.870;2023-03-14T03:10:47;99289.38;;;5.78;71.17
78665;BME280;67981;51.022;-2.870;2023-03-14T03:13:12;99302.59;;;5.95;70.53
78665;BME280;67981;51.022;-2.870;2023-03-14T03:15:38;99311.97;;;5.96;71.37
78665;BME280;67981;51.022;-2.870;2023-03-14T03:18:03;99309.31;;;5.92;70.88
78665;BME280;67981;51.022;-2.870;2023-03-14T03:20:29;99305.84;;;5.90;71.19
78665;BME280;67981;51.022;-2.870;2023-03-14T03:22:54;99295.59;;;5.88;69.89
78665;BME280;67981;51.022;-2.870;2023-03-14T03:25:20;99314.66;;;6.01;69.55
78665;BME280;67981;51.022;-2.870;2023-03-14T03:27:45;99333.50;;;6.04;68.99
78665;BME280;67981;51.022;-2.870;2023-03-14T03:30:11;99317.25;;;6.02;69.23
78665;BME280;67981;51.022;-2.870;2023-03-14T03:32:36;99335.31;;;6.08;69.25
78665;BME280;67981;51.022;-2.870;2023-03-14T03:35:03;99334.44;;;6.08;68.89
78665;BME280;67981;51.022;-2.870;2023-03-14T03:37:33;99342.09;;;6.06;70.29
78665;BME280;67981;51.022;-2.870;2023-03-14T03:39:58;99336.84;;;6.00;69.18
78665;BME280;67981;51.022;-2.870;2023-03-14T03:42:26;99333.44;;;6.01;69.91
78665;BME280;67981;51.022;-2.870;2023-03-14T03:44:52;99357.47;;;6.08;69.30
78665;BME280;67981;51.022;-2.870;2023-03-14T03:47:17;99361.06;;;6.16;68.50
78665;BME280;67981;51.022;-2.870;2023-03-14T03:49:42;99369.44;;;6.07;70.90
78665;BME280;67981;51.022;-2.870;2023-03-14T03:52:08;99387.97;;;5.97;72.32
78665;BME280;67981;51.022;-2.870;2023-03-14T03:54:34;99387.59;;;5.82;73.37
78665;BME280;67981;51.022;-2.870;2023-03-14T03:57:00;99396.06;;;6.14;75.86
78665;BME280;67981;51.022;-2.870;2023-03-14T03:59:25;99406.06;;;5.70;75.77
78665;BME280;67981;51.022;-2.870;2023-03-14T04:01:50;99392.69;;;5.48;76.48
78665;BME280;67981;51.022;-2.870;2023-03-14T04:04:16;99427.75;;;5.50;77.56
78665;BME280;67981;51.022;-2.870;2023-03-14T04:06:41;99416.38;;;5.39;78.79
78665;BME280;67981;51.022;-2.870;2023-03-14T04:09:08;99422.97;;;5.31;79.36
78665;BME280;67981;51.022;-2.870;2023-03-14T04:11:34;99418.25;;;5.14;80.49
78665;BME280;67981;51.022;-2.870;2023-03-14T04:13:59;99426.75;;;5.14;81.38
78665;BME280;67981;51.022;-2.870;2023-03-14T04:16:25;99434.31;;;5.10;80.55
78665;BME280;67981;51.022;-2.870;2023-03-14T04:18:51;99421.97;;;4.95;81.20
78665;BME280;67981;51.022;-2.870;2023-03-14T04:21:17;99435.34;;;5.16;79.27
78665;BME280;67981;51.022;-2.870;2023-03-14T04:23:43;99453.22;;;5.15;79.09
78665;BME280;67981;51.022;-2.870;2023-03-14T04:26:08;99459.81;;;5.07;78.77
78665;BME280;67981;51.022;-2.870;2023-03-14T04:28:34;99464.88;;;5.05;77.81
78665;BME280;67981;51.022;-2.870;2023-03-14T04:31:19;99458.41;;;4.88;77.97
78665;BME280;67981;51.022;-2.870;2023-03-14T04:33:45;99480.09;;;5.01;77.34
78665;BME280;67981;51.022;-2.870;2023-03-14T04:36:11;99485.97;;;4.98;77.77
78665;BME280;67981;51.022;-2.870;2023-03-14T04:38:36;99477.53;;;5.01;76.57
78665;BME280;67981;51.022;-2.870;2023-03-14T04:41:02;99476.53;;;4.96;75.58
78665;BME280;67981;51.022;-2.870;2023-03-14T04:43:28;99498.75;;;4.98;75.71
78665;BME280;67981;51.022;-2.870;2023-03-14T04:45:55;99506.25;;;4.92;76.28
78665;BME280;67981;51.022;-2.870;2023-03-14T04:48:21;99503.69;;;4.92;76.01
78665;BME280;67981;51.022;-2.870;2023-03-14T04:50:47;99510.63;;;4.96;76.18
78665;BME280;67981;51.022;-2.870;2023-03-14T04:53:13;99503.38;;;4.82;75.70
78665;BME280;67981;51.022;-2.870;2023-03-14T04:55:39;99503.47;;;4.85;75.25
78665;BME280;67981;51.022;-2.870;2023-03-14T04:58:04;99510.31;;;4.86;74.48
78665;BME280;67981;51.022;-2.870;2023-03-14T05:00:30;99499.91;;;4.80;74.57
78665;BME280;67981;51.022;-2.870;2023-03-14T05:02:55;99507.75;;;4.86;73.80
78665;BME280;67981;51.022;-2.870;2023-03-14T05:05:21;99518.19;;;4.93;72.94
78665;BME280;67981;51.022;-2.870;2023-03-14T05:07:46;99509.00;;;5.00;72.30
78665;BME280;67981;51.022;-2.870;2023-03-14T05:10:12;99524.06;;;4.89;72.71
78665;BME280;67981;51.022;-2.870;2023-03-14T05:12:37;99522.97;;;4.81;73.33
78665;BME280;67981;51.022;-2.870;2023-03-14T05:15:03;99522.88;;;4.78;73.53
78665;BME280;67981;51.022;-2.870;2023-03-14T05:17:29;99515.03;;;4.74;72.78
78665;BME280;67981;51.022;-2.870;2023-03-14T05:19:55;99536.44;;;4.77;73.13
78665;BME280;67981;51.022;-2.870;2023-03-14T05:22:20;99536.41;;;4.76;73.30
78665;BME280;67981;51.022;-2.870;2023-03-14T05:24:46;99556.69;;;4.70;74.01
78665;BME280;67981;51.022;-2.870;2023-03-14T05:27:11;99539.50;;;4.66;73.67
78665;BME280;67981;51.022;-2.870;2023-03-14T05:29:36;99558.53;;;4.75;74.55
78665;BME280;67981;51.022;-2.870;2023-03-14T05:32:02;99557.03;;;4.82;72.95
78665;BME280;67981;51.022;-2.870;2023-03-14T05:34:27;99568.03;;;4.79;74.85
78665;BME280;67981;51.022;-2.870;2023-03-14T05:36:52;99549.56;;;4.88;72.81
78665;BME280;67981;51.022;-2.870;2023-03-14T05:39:18;99581.53;;;5.02;72.91
78665;BME280;67981;51.022;-2.870;2023-03-14T05:41:43;99582.19;;;4.96;73.21
78665;BME280;67981;51.022;-2.870;2023-03-14T05:44:09;99563.56;;;4.72;73.74
78665;BME280;67981;51.022;-2.870;2023-03-14T05:46:34;99573.78;;;4.46;77.46
78665;BME280;67981;51.022;-2.870;2023-03-14T05:49:00;99618.78;;;4.42;80.93
78665;BME280;67981;51.022;-2.870;2023-03-14T05:51:25;99659.13;;;4.27;82.54
78665;BME280;67981;51.022;-2.870;2023-03-14T05:53:51;99671.25;;;4.07;84.04
78665;BME280;67981;51.022;-2.870;2023-03-14T05:56:16;99663.91;;;3.93;85.21
78665;BME280;67981;51.022;-2.870;2023-03-14T05:58:42;99668.56;;;3.81;86.41
78665;BME280;67981;51.022;-2.870;2023-03-14T06:01:08;99669.69;;;3.65;85.91
78665;BME280;67981;51.022;-2.870;2023-03-14T06:03:33;99667.50;;;3.52;84.98
78665;BME280;67981;51.022;-2.870;2023-03-14T06:05:59;99687.47;;;3.42;85.23
78665;BME280;67981;51.022;-2.870;2023-03-14T06:08:24;99672.72;;;3.33;85.83
78665;BME280;67981;51.022;-2.870;2023-03-14T06:10:51;99681.34;;;3.37;85.95
78665;BME280;67981;51.022;-2.870;2023-03-14T06:13:17;99671.97;;;3.36;85.46
78665;BME280;67981;51.022;-2.870;2023-03-14T06:15:42;99659.44;;;3.42;85.68
78665;BME280;67981;51.022;-2.870;2023-03-14T06:18:08;99664.16;;;3.31;85.53
78665;BME280;67981;51.022;-2.870;2023-03-14T06:20:37;99662.22;;;3.26;85.38
78665;BME280;67981;51.022;-2.870;2023-03-14T06:23:05;99671.25;;;3.18;86.15
78665;BME280;67981;51.022;-2.870;2023-03-14T06:25:31;99685.06;;;3.23;86.59
78665;BME280;67981;51.022;-2.870;2023-03-14T06:27:57;99694.56;;;3.27;86.90
78665;BME280;67981;51.022;-2.870;2023-03-14T06:30:22;99704.88;;;3.30;86.88
78665;BME280;67981;51.022;-2.870;2023-03-14T06:32:48;99706.66;;;3.32;86.81
78665;BME280;67981;51.022;-2.870;2023-03-14T06:35:13;99698.16;;;3.32;87.22
78665;BME280;67981;51.022;-2.870;2023-03-14T06:37:38;99709.38;;;3.37;87.70
78665;BME280;67981;51.022;-2.870;2023-03-14T06:40:04;99720.69;;;3.43;86.75
78665;BME280;67981;51.022;-2.870;2023-03-14T06:42:32;99711.16;;;3.38;87.72
78665;BME280;67981;51.022;-2.870;2023-03-14T06:44:57;99718.09;;;3.42;87.68
78665;BME280;67981;51.022;-2.870;2023-03-14T06:47:22;99762.16;;;3.60;87.78
78665;BME280;67981;51.022;-2.870;2023-03-14T06:49:48;99768.91;;;3.80;87.96
78665;BME280;67981;51.022;-2.870;2023-03-14T06:52:13;99739.09;;;3.57;87.80
78665;BME280;67981;51.022;-2.870;2023-03-14T06:54:39;99758.63;;;3.78;86.97
78665;BME280;67981;51.022;-2.870;2023-03-14T06:57:04;99749.22;;;3.77;86.71
78665;BME280;67981;51.022;-2.870;2023-03-14T06:59:29;99763.84;;;3.81;86.68
78665;BME280;67981;51.022;-2.870;2023-03-14T07:01:55;99776.50;;;3.78;86.59
78665;BME280;67981;51.022;-2.870;2023-03-14T07:04:20;99770.03;;;3.66;86.39
78665;BME280;67981;51.022;-2.870;2023-03-14T07:06:45;99784.09;;;3.77;86.95
78665;BME280;67981;51.022;-2.870;2023-03-14T07:09:12;99782.06;;;3.68;86.96
78665;BME280;67981;51.022;-2.870;2023-03-14T07:11:38;99793.38;;;3.75;86.61
78665;BME280;67981;51.022;-2.870;2023-03-14T07:14:04;99792.47;;;3.74;87.22
78665;BME280;67981;51.022;-2.870;2023-03-14T07:16:29;99808.84;;;3.79;86.89
78665;BME280;67981;51.022;-2.870;2023-03-14T07:18:58;99816.44;;;3.78;86.85
78665;BME280;67981;51.022;-2.870;2023-03-14T07:21:23;99820.84;;;3.82;87.40
78665;BME280;67981;51.022;-2.870;2023-03-14T07:23:49;99821.81;;;3.85;86.58
78665;BME280;67981;51.022;-2.870;2023-03-14T07:26:14;99822.59;;;3.83;87.11
78665;BME280;67981;51.022;-2.870;2023-03-14T07:28:40;99832.41;;;3.94;86.86
78665;BME280;67981;51.022;-2.870;2023-03-14T07:31:06;99844.56;;;4.01;86.72
78665;BME280;67981;51.022;-2.870;2023-03-14T07:33:32;99851.50;;;4.04;86.06
78665;BME280;67981;51.022;-2.870;2023-03-14T07:35:57;99851.53;;;4.05;85.26
78665;BME280;67981;51.022;-2.870;2023-03-14T07:38:23;99850.03;;;4.10;85.90
78665;BME280;67981;51.022;-2.870;2023-03-14T07:40:50;99860.19;;;4.09;85.47
78665;BME280;67981;51.022;-2.870;2023-03-14T07:43:15;99862.19;;;4.17;85.80
78665;BME280;67981;51.022;-2.870;2023-03-14T07:45:41;99865.75;;;4.21;84.27
78665;BME280;67981;51.022;-2.870;2023-03-14T07:48:06;99874.41;;;4.24;83.77
78665;BME280;67981;51.022;-2.870;2023-03-14T07:50:32;99902.81;;;4.33;83.98
78665;BME280;67981;51.022;-2.870;2023-03-14T07:52:57;99909.16;;;4.43;82.79
78665;BME280;67981;51.022;-2.870;2023-03-14T07:55:22;99903.28;;;4.46;82.77
78665;BME280;67981;51.022;-2.870;2023-03-14T07:57:48;99926.09;;;4.63;82.90
78665;BME280;67981;51.022;-2.870;2023-03-14T08:00:13;99929.63;;;4.67;83.23
78665;BME280;67981;51.022;-2.870;2023-03-14T08:02:40;99934.88;;;4.70;83.12
78665;BME280;67981;51.022;-2.870;2023-03-14T08:05:06;99930.28;;;4.61;82.33
78665;BME280;67981;51.022;-2.870;2023-03-14T08:07:32;99947.81;;;4.74;82.82
78665;BME280;67981;51.022;-2.870;2023-03-14T08:09:57;99942.22;;;4.84;83.48
78665;BME280;67981;51.022;-2.870;2023-03-14T08:12:22;99939.78;;;4.87;82.80
78665;BME280;67981;51.022;-2.870;2023-03-14T08:14:48;99951.13;;;4.95;83.17
78665;BME280;67981;51.022;-2.870;2023-03-14T08:17:13;99966.00;;;5.05;82.07
78665;BME280;67981;51.022;-2.870;2023-03-14T08:19:41;99967.25;;;5.16;81.10
78665;BME280;67981;51.022;-2.870;2023-03-14T08:22:06;99975.47;;;5.31;80.92
78665;BME280;67981;51.022;-2.870;2023-03-14T08:24:31;99982.69;;;5.43;80.19
78665;BME280;67981;51.022;-2.870;2023-03-14T08:26:57;99987.41;;;5.56;80.71
78665;BME280;67981;51.022;-2.870;2023-03-14T08:29:22;99980.13;;;5.43;79.93
78665;BME280;67981;51.022;-2.870;2023-03-14T08:31:48;100019.47;;;5.46;79.69
78665;BME280;67981;51.022;-2.870;2023-03-14T08:34:14;100016.94;;;5.46;80.42
78665;BME280;67981;51.022;-2.870;2023-03-14T08:36:40;100027.41;;;5.52;81.35
78665;BME280;67981;51.022;-2.870;2023-03-14T08:39:05;100029.72;;;5.46;81.35
78665;BME280;67981;51.022;-2.870;2023-03-14T08:41:32;100040.00;;;5.48;81.19
78665;BME280;67981;51.022;-2.870;2023-03-14T08:43:58;100055.56;;;5.52;80.23
78665;BME280;67981;51.022;-2.870;2023-03-14T08:46:23;100044.38;;;5.50;81.32
78665;BME280;67981;51.022;-2.870;2023-03-14T08:48:49;100052.22;;;5.55;79.63
78665;BME280;67981;51.022;-2.870;2023-03-14T08:51:14;100079.59;;;5.57;78.25
78665;BME280;67981;51.022;-2.870;2023-03-14T08:53:40;100084.38;;;5.48;79.21
78665;BME280;67981;51.022;-2.870;2023-03-14T08:56:06;100105.50;;;5.43;77.84
78665;BME280;67981;51.022;-2.870;2023-03-14T08:58:35;100096.81;;;5.38;77.31
78665;BME280;67981;51.022;-2.870;2023-03-14T09:01:02;100114.09;;;5.45;77.31
78665;BME280;67981;51.022;-2.870;2023-03-14T09:03:27;100113.25;;;5.22;76.71
78665;BME280;67981;51.022;-2.870;2023-03-14T09:05:53;100112.78;;;5.32;76.84
78665;BME280;67981;51.022;-2.870;2023-03-14T09:08:19;100118.22;;;5.41;75.26
78665;BME280;67981;51.022;-2.870;2023-03-14T09:10:44;100139.44;;;5.61;75.99
78665;BME280;67981;51.022;-2.870;2023-03-14T09:13:10;100151.81;;;5.72;75.48
78665;BME280;67981;51.022;-2.870;2023-03-14T09:15:35;100150.28;;;5.77;74.58
78665;BME280;67981;51.022;-2.870;2023-03-14T09:18:01;100171.63;;;6.00;75.10
78665;BME280;67981;51.022;-2.870;2023-03-14T09:20:26;100151.50;;;6.11;74.60
78665;BME280;67981;51.022;-2.870;2023-03-14T09:22:52;100171.31;;;6.15;69.12
78665;BME280;67981;51.022;-2.870;2023-03-14T09:25:17;100181.75;;;6.21;70.05
78665;BME280;67981;51.022;-2.870;2023-03-14T09:27:42;100184.38;;;6.22;69.89
78665;BME280;67981;51.022;-2.870;2023-03-14T09:30:08;100185.00;;;6.15;71.04
78665;BME280;67981;51.022;-2.870;2023-03-14T09:32:34;100194.97;;;6.31;72.32
78665;BME280;67981;51.022;-2.870;2023-03-14T09:35:00;100196.38;;;6.23;71.22
78665;BME280;67981;51.022;-2.870;2023-03-14T09:37:25;100201.81;;;6.32;71.77
78665;BME280;67981;51.022;-2.870;2023-03-14T09:39:51;100213.97;;;6.38;72.19
78665;BME280;67981;51.022;-2.870;2023-03-14T09:42:19;100219.47;;;6.48;71.46
78665;BME280;67981;51.022;-2.870;2023-03-14T09:47:18;100245.44;;;6.34;71.32
78665;BME280;67981;51.022;-2.870;2023-03-14T09:49:45;100246.84;;;6.26;70.62
78665;BME280;67981;51.022;-2.870;2023-03-14T09:54:44;100271.72;;;6.52;71.33
78665;BME280;67981;51.022;-2.870;2023-03-14T09:57:14;100265.84;;;6.56;70.71
78665;BME280;67981;51.022;-2.870;2023-03-14T09:59:44;100286.72;;;6.65;69.26
78665;BME280;67981;51.022;-2.870;2023-03-14T10:04:42;100293.31;;;6.83;69.84
78665;BME280;67981;51.022;-2.870;2023-03-14T10:07:17;100291.44;;;6.78;69.01
78665;BME280;67981;51.022;-2.870;2023-03-14T10:09:47;100317.03;;;6.76;68.89
78665;BME280;67981;51.022;-2.870;2023-03-14T10:12:13;100314.06;;;6.66;69.06
78665;BME280;67981;51.022;-2.870;2023-03-14T10:14:47;100329.91;;;6.78;69.79
78665;BME280;67981;51.022;-2.870;2023-03-14T10:17:13;100332.22;;;6.95;68.50
78665;BME280;67981;51.022;-2.870;2023-03-14T10:19:56;100338.03;;;7.15;67.84
78665;BME280;67981;51.022;-2.870;2023-03-14T10:22:24;100351.97;;;6.98;67.17
78665;BME280;67981;51.022;-2.870;2023-03-14T10:24:53;100359.91;;;7.05;67.67
78665;BME280;67981;51.022;-2.870;2023-03-14T10:27:28;100365.19;;;7.08;67.93
78665;BME280;67981;51.022;-2.870;2023-03-14T10:29:58;100376.47;;;7.13;67.93
78665;BME280;67981;51.022;-2.870;2023-03-14T10:32:36;100379.44;;;7.00;68.81
78665;BME280;67981;51.022;-2.870;2023-03-14T10:38:02;100397.69;;;6.84;69.57
78665;BME280;67981;51.022;-2.870;2023-03-14T10:40:30;100419.66;;;6.78;70.53
78665;BME280;67981;51.022;-2.870;2023-03-14T10:42:58;100417.56;;;6.91;71.02
78665;BME280;67981;51.022;-2.870;2023-03-14T10:45:34;100428.00;;;7.45;70.64
78665;BME280;67981;51.022;-2.870;2023-03-14T10:48:52;100432.41;;;7.47;69.48
78665;BME280;67981;51.022;-2.870;2023-03-14T10:53:25;100457.47;;;7.31;67.58
78665;BME280;67981;51.022;-2.870;2023-03-14T10:55:51;100452.41;;;7.08;64.13
78665;BME280;67981;51.022;-2.870;2023-03-14T10:58:23;100468.84;;;7.37;66.29
78665;BME280;67981;51.022;-2.870;2023-03-14T11:03:29;100475.75;;;7.40;66.94
78665;BME280;67981;51.022;-2.870;2023-03-14T11:05:59;100495.31;;;7.36;68.55
78665;BME280;67981;51.022;-2.870;2023-03-14T11:11:14;100498.53;;;7.54;68.61
78665;BME280;67981;51.022;-2.870;2023-03-14T11:19:41;100522.72;;;7.61;68.78
78665;BME280;67981;51.022;-2.870;2023-03-14T11:25:36;100510.53;;;7.32;68.71
78665;BME280;67981;51.022;-2.870;2023-03-14T11:30:21;100527.84;;;7.84;66.47
78665;BME280;67981;51.022;-2.870;2023-03-14T11:32:55;100538.41;;;7.93;63.99
78665;BME280;67981;51.022;-2.870;2023-03-14T11:35:35;100535.84;;;7.93;62.94
78665;BME280;67981;51.022;-2.870;2023-03-14T11:38:14;100539.72;;;7.81;62.59
78665;BME280;67981;51.022;-2.870;2023-03-14T11:40:41;100530.56;;;7.89;63.36
78665;BME280;67981;51.022;-2.870;2023-03-14T11:43:13;100539.97;;;8.13;65.17
78665;BME280;67981;51.022;-2.870;2023-03-14T11:45:41;100544.56;;;7.73;64.88
78665;BME280;67981;51.022;-2.870;2023-03-14T11:50:55;100533.69;;;7.80;63.08
78665;BME280;67981;51.022;-2.870;2023-03-14T11:55:52;100546.47;;;8.54;65.45
78665;BME280;67981;51.022;-2.870;2023-03-14T11:58:31;100539.19;;;8.41;63.12
78665;BME280;67981;51.022;-2.870;2023-03-14T12:01:03;100556.78;;;8.55;60.47
78665;BME280;67981;51.022;-2.870;2023-03-14T12:03:44;100562.91;;;8.32;62.11
78665;BME280;67981;51.022;-2.870;2023-03-14T12:09:00;100577.09;;;8.21;62.50
78665;BME280;67981;51.022;-2.870;2023-03-14T12:14:22;100582.75;;;8.36;63.43
78665;BME280;67981;51.022;-2.870;2023-03-14T12:16:49;100576.41;;;8.02;63.77
78665;BME280;67981;51.022;-2.870;2023-03-14T12:24:32;100593.16;;;8.16;62.45
78665;BME280;67981;51.022;-2.870;2023-03-14T12:27:01;100586.34;;;8.16;60.06
78665;BME280;67981;51.022;-2.870;2023-03-14T12:29:27;100581.00;;;8.35;58.99
78665;BME280;67981;51.022;-2.870;2023-03-14T12:32:21;100596.06;;;8.77;58.27
78665;BME280;67981;51.022;-2.870;2023-03-14T12:34:47;100576.13;;;8.70;57.80
78665;BME280;67981;51.022;-2.870;2023-03-14T12:37:23;100596.19;;;9.08;57.33
78665;BME280;67981;51.022;-2.870;2023-03-14T12:39:56;100593.81;;;9.15;56.64
78665;BME280;67981;51.022;-2.870;2023-03-14T12:42:45;100602.44;;;8.89;54.87
78665;BME280;67981;51.022;-2.870;2023-03-14T12:45:33;100610.72;;;8.52;55.28
78665;BME280;67981;51.022;-2.870;2023-03-14T12:50:30;100583.81;;;8.43;55.41
78665;BME280;67981;51.022;-2.870;2023-03-14T12:55:44;100609.22;;;8.86;55.03
78665;BME280;67981;51.022;-2.870;2023-03-14T13:00:55;100609.09;;;9.09;54.80
78665;BME280;67981;51.022;-2.870;2023-03-14T13:03:24;100595.69;;;9.19;54.20
78665;BME280;67981;51.022;-2.870;2023-03-14T13:06:01;100614.25;;;9.09;52.37
78665;BME280;67981;51.022;-2.870;2023-03-14T13:08:43;100609.78;;;9.04;52.45
78665;BME280;67981;51.022;-2.870;2023-03-14T13:11:16;100621.00;;;9.06;51.83
78665;BME280;67981;51.022;-2.870;2023-03-14T13:13:48;100613.63;;;8.90;50.35
78665;BME280;67981;51.022;-2.870;2023-03-14T13:16:19;100620.03;;;9.02;50.43
78665;BME280;67981;51.022;-2.870;2023-03-14T13:18:47;100622.53;;;9.27;50.27
78665;BME280;67981;51.022;-2.870;2023-03-14T13:21:17;100616.78;;;9.36;50.35
78665;BME280;67981;51.022;-2.870;2023-03-14T13:24:03;100614.38;;;9.42;48.36
78665;BME280;67981;51.022;-2.870;2023-03-14T13:26:35;100626.22;;;9.35;48.27
78665;BME280;67981;51.022;-2.870;2023-03-14T13:29:18;100626.28;;;9.38;48.63
78665;BME280;67981;51.022;-2.870;2023-03-14T13:31:49;100621.44;;;9.49;48.91
78665;BME280;67981;51.022;-2.870;2023-03-14T13:34:16;100626.72;;;9.52;49.78
78665;BME280;67981;51.022;-2.870;2023-03-14T13:36:42;100621.41;;;9.47;51.18
78665;BME280;67981;51.022;-2.870;2023-03-14T13:39:13;100621.16;;;9.38;50.84
78665;BME280;67981;51.022;-2.870;2023-03-14T13:41:40;100626.31;;;9.12;49.45
78665;BME280;67981;51.022;-2.870;2023-03-14T13:44:14;100628.19;;;9.16;48.97
78665;BME280;67981;51.022;-2.870;2023-03-14T13:46:40;100638.22;;;9.07;51.07
78665;BME280;67981;51.022;-2.870;2023-03-14T13:49:10;100616.19;;;8.90;50.33
78665;BME280;67981;51.022;-2.870;2023-03-14T13:51:39;100635.06;;;9.17;51.86
78665;BME280;67981;51.022;-2.870;2023-03-14T13:54:17;100641.75;;;9.38;51.39
78665;BME280;67981;51.022;-2.870;2023-03-14T13:56:43;100651.28;;;9.42;51.89
78665;BME280;67981;51.022;-2.870;2023-03-14T13:59:27;100644.75;;;9.52;51.37
78665;BME280;67981;51.022;-2.870;2023-03-14T14:01:54;100648.94;;;9.48;50.90
78665;BME280;67981;51.022;-2.870;2023-03-14T14:04:24;100658.84;;;9.36;50.43